sensor_id;sensor_type;location;lat;lon;timestamp;temperature;humidity
5870;DHT22;2961;47.702;9.410;2024-01-07T00:02:08;2.40;99.90
5870;DHT22;2961;47.702;9.410;2024-01-07T00:04:36;2.30;99.90
5870;DHT22;2961;47.702;9.410;2024-01-07T00:07:04;2.30;99.90
5870;DHT22;2961;47.702;9.410;2024-01-07T00:09:30;2.30;99.90
5870;DHT22;2961;47.702;9.410;2024-01-07T00:11:57;2.30;99.90
5870;DHT22;2961;47.702;9.410;2024-01-07T00:14:24;2.40;99.90
5870;DHT22;2961;47.702;9.410;2024-01-07T00:16:51;2.40;99.90
5870;DHT22;2961;47.702;9.410;2024-01-07T00:19:17;2.40;99.90
5870;DHT22;2961;47.702;9.410;2024-01-07T00:21:45;2.40;99.90
5870;DHT22;2961;47.702;9.410;2024-01-07T00:24:12;2.40;99.90
5870;DHT22;2961;47.702;9.410;2024-01-07T00:26:39;2.40;99.90
5870;DHT22;2961;47.702;9.410;2024-01-07T00:29:06;2.40;99.90
5870;DHT22;2961;47.702;9.410;2024-01-07T00:31:32;2.40;99.90
5870;DHT22;2961;47.702;9.410;2024-01-07T00:33:59;2.40;99.90
5870;DHT22;2961;47.702;9.410;2024-01-07T00:36:26;2.40;99.90
5870;DHT22;2961;47.702;9.410;2024-01-07T00:38:54;2.40;99.90
5870;DHT22;2961;47.702;9.410;2024-01-07T00:41:21;2.40;99.90
5870;DHT22;2961;47.702;9.410;2024-01-07T00:43:48;2.40;99.90
5870;DHT22;2961;47.702;9.410;2024-01-07T00:46:14;2.40;99.90
5870;DHT22;2961;47.702;9.410;2024-01-07T00:48:41;2.40;99.90
5870;DHT22;2961;47.702;9.410;2024-01-07T00:51:08;2.40;99.90
5870;DHT22;2961;47.702;9.410;2024-01-07T00:53:35;2.40;99.90
5870;DHT22;2961;47.702;9.410;2024-01-07T00:56:04;2.40;99.90
5870;DHT22;2961;47.702;9.410;2024-01-07T00:58:31;2.40;99.90
5870;DHT22;2961;47.702;9.410;2024-01-07T01:00:58;2.40;99.90
5870;DHT22;2961;47.702;9.410;2024-01-07T01:03:25;2.30;99.90
5870;DHT22;2961;47.702;9.410;2024-01-07T01:05:52;2.30;99.90
5870;DHT22;2961;47.702;9.410;2024-01-07T01:08:19;2.30;99.90
5870;DHT22;2961;47.702;9.410;2024-01-07T01:10:46;2.30;99.90
5870;DHT22;2961;47.702;9.410;2024-01-07T01:13:14;2.30;99.90
5870;DHT22;2961;47.702;9.410;2024-01-07T01:15:40;2.30;99.90
5870;DHT22;2961;47.702;9.410;2024-01-07T01:18:07;2.30;99.90
5870;DHT22;2961;47.702;9.410;2024-01-07T01:20:34;2.30;99.90
5870;DHT22;2961;47.702;9.410;2024-01-07T01:23:01;2.30;99.90
5870;DHT22;2961;47.702;9.410;2024-01-07T01:25:28;2.30;99.90
5870;DHT22;2961;47.702;9.410;2024-01-07T01:27:55;2.30;99.90
5870;DHT22;2961;47.702;9.410;2024-01-07T01:30:23;2.30;99.90
5870;DHT22;2961;47.702;9.410;2024-01-07T01:32:50;2.30;99.90
5870;DHT22;2961;47.702;9.410;2024-01-07T01:35:17;2.30;99.90
5870;DHT22;2961;47.702;9.410;2024-01-07T01:37:44;2.30;99.90
5870;DHT22;2961;47.702;9.410;2024-01-07T01:40:11;2.40;99.90
5870;DHT22;2961;47.702;9.410;2024-01-07T01:42:38;2.30;99.90
5870;DHT22;2961;47.702;9.410;2024-01-07T01:45:06;2.40;99.90
5870;DHT22;2961;47.702;9.410;2024-01-07T01:47:34;2.40;99.90
5870;DHT22;2961;47.702;9.410;2024-01-07T01:50:01;2.40;99.90
5870;DHT22;2961;47.702;9.410;2024-01-07T01:52:28;2.40;99.90
5870;DHT22;2961;47.702;9.410;2024-01-07T01:54:55;2.40;99.90
5870;DHT22;2961;47.702;9.410;2024-01-07T01:57:22;2.40;99.90
5870;DHT22;2961;47.702;9.410;2024-01-07T01:59:51;2.30;99.90
5870;DHT22;2961;47.702;9.410;2024-01-07T02:02:18;2.40;99.90
5870;DHT22;2961;47.702;9.410;2024-01-07T02:04:47;2.40;99.90
5870;DHT22;2961;47.702;9.410;2024-01-07T02:07:14;2.40;99.90
5870;DHT22;2961;47.702;9.410;2024-01-07T02:09:40;2.40;99.90
5870;DHT22;2961;47.702;9.410;2024-01-07T02:12:07;2.40;99.90
5870;DHT22;2961;47.702;9.410;2024-01-07T02:14:37;2.40;99.90
5870;DHT22;2961;47.702;9.410;2024-01-07T02:17:04;2.40;99.90
5870;DHT22;2961;47.702;9.410;2024-01-07T02:19:31;2.40;99.90
5870;DHT22;2961;47.702;9.410;2024-01-07T02:21:59;2.40;99.90
5870;DHT22;2961;47.702;9.410;2024-01-07T02:24:27;2.40;99.90
5870;DHT22;2961;47.702;9.410;2024-01-07T02:26:55;2.30;99.90
5870;DHT22;2961;47.702;9.410;2024-01-07T02:29:22;2.40;99.90
5870;DHT22;2961;47.702;9.410;2024-01-07T02:31:49;2.30;99.90
5870;DHT22;2961;47.702;9.410;2024-01-07T02:34:16;2.30;99.90
5870;DHT22;2961;47.702;9.410;2024-01-07T02:36:42;2.30;99.90
5870;DHT22;2961;47.702;9.410;2024-01-07T02:39:09;2.30;99.90
5870;DHT22;2961;47.702;9.410;2024-01-07T02:41:37;2.30;99.90
5870;DHT22;2961;47.702;9.410;2024-01-07T02:44:04;2.30;99.90
5870;DHT22;2961;47.702;9.410;2024-01-07T02:46:31;2.30;99.90
5870;DHT22;2961;47.702;9.410;2024-01-07T02:48:58;2.30;99.90
5870;DHT22;2961;47.702;9.410;2024-01-07T02:51:24;2.30;99.90
5870;DHT22;2961;47.702;9.410;2024-01-07T02:53:51;2.30;99.90
5870;DHT22;2961;47.702;9.410;2024-01-07T02:56:18;2.30;99.90
5870;DHT22;2961;47.702;9.410;2024-01-07T02:58:46;2.30;99.90
5870;DHT22;2961;47.702;9.410;2024-01-07T03:01:13;2.30;99.90
5870;DHT22;2961;47.702;9.410;2024-01-07T03:03:40;2.30;99.90
5870;DHT22;2961;47.702;9.410;2024-01-07T03:06:06;2.30;99.90
5870;DHT22;2961;47.702;9.410;2024-01-07T03:08:34;2.30;99.90
5870;DHT22;2961;47.702;9.410;2024-01-07T03:11:04;2.30;99.90
5870;DHT22;2961;47.702;9.410;2024-01-07T03:13:31;2.30;99.90
5870;DHT22;2961;47.702;9.410;2024-01-07T03:16:00;2.30;99.90
5870;DHT22;2961;47.702;9.410;2024-01-07T03:18:27;2.30;99.90
5870;DHT22;2961;47.702;9.410;2024-01-07T03:20:54;2.30;99.90
5870;DHT22;2961;47.702;9.410;2024-01-07T03:23:21;2.30;99.90
5870;DHT22;2961;47.702;9.410;2024-01-07T03:25:48;2.30;99.90
5870;DHT22;2961;47.702;9.410;2024-01-07T03:28:14;2.20;99.90
5870;DHT22;2961;47.702;9.410;2024-01-07T03:30:41;2.20;99.90
5870;DHT22;2961;47.702;9.410;2024-01-07T03:33:09;2.20;99.90
5870;DHT22;2961;47.702;9.410;2024-01-07T03:35:36;2.20;99.90
5870;DHT22;2961;47.702;9.410;2024-01-07T03:38:03;2.20;99.90
5870;DHT22;2961;47.702;9.410;2024-01-07T03:40:30;2.20;99.90
5870;DHT22;2961;47.702;9.410;2024-01-07T03:42:57;2.30;99.90
5870;DHT22;2961;47.702;9.410;2024-01-07T03:45:23;2.30;99.90
5870;DHT22;2961;47.702;9.410;2024-01-07T03:47:51;2.30;99.90
5870;DHT22;2961;47.702;9.410;2024-01-07T03:50:19;2.40;99.90
5870;DHT22;2961;47.702;9.410;2024-01-07T03:52:46;2.30;99.90
5870;DHT22;2961;47.702;9.410;2024-01-07T03:55:13;2.30;99.90
5870;DHT22;2961;47.702;9.410;2024-01-07T03:57:40;2.30;99.90
5870;DHT22;2961;47.702;9.410;2024-01-07T04:00:07;2.30;99.90
5870;DHT22;2961;47.702;9.410;2024-01-07T04:02:35;2.30;99.90
5870;DHT22;2961;47.702;9.410;2024-01-07T04:05:01;2.30;99.90
5870;DHT22;2961;47.702;9.410;2024-01-07T04:07:30;2.30;99.90
5870;DHT22;2961;47.702;9.410;2024-01-07T04:09:56;2.40;99.90
5870;DHT22;2961;47.702;9.410;2024-01-07T04:12:23;2.40;99.90
5870;DHT22;2961;47.702;9.410;2024-01-07T04:14:50;2.30;99.90
5870;DHT22;2961;47.702;9.410;2024-01-07T04:17:17;2.30;99.90
5870;DHT22;2961;47.702;9.410;2024-01-07T04:19:43;2.20;99.90
5870;DHT22;2961;47.702;9.410;2024-01-07T04:22:10;2.20;99.90
5870;DHT22;2961;47.702;9.410;2024-01-07T04:24:40;2.20;99.90
5870;DHT22;2961;47.702;9.410;2024-01-07T04:27:07;2.20;99.90
5870;DHT22;2961;47.702;9.410;2024-01-07T04:29:34;2.20;99.90
5870;DHT22;2961;47.702;9.410;2024-01-07T04:32:00;2.30;99.90
5870;DHT22;2961;47.702;9.410;2024-01-07T04:34:27;2.30;99.90
5870;DHT22;2961;47.702;9.410;2024-01-07T04:36:54;2.30;99.90
5870;DHT22;2961;47.702;9.410;2024-01-07T04:39:20;2.30;99.90
5870;DHT22;2961;47.702;9.410;2024-01-07T04:41:49;2.30;99.90
5870;DHT22;2961;47.702;9.410;2024-01-07T04:44:15;2.20;99.90
5870;DHT22;2961;47.702;9.410;2024-01-07T04:46:42;2.20;99.90
5870;DHT22;2961;47.702;9.410;2024-01-07T04:49:09;2.30;99.90
5870;DHT22;2961;47.702;9.410;2024-01-07T04:51:36;2.20;99.90
5870;DHT22;2961;47.702;9.410;2024-01-07T04:54:03;2.20;99.90
5870;DHT22;2961;47.702;9.410;2024-01-07T04:56:31;2.20;99.90
5870;DHT22;2961;47.702;9.410;2024-01-07T04:58:59;2.20;99.90
5870;DHT22;2961;47.702;9.410;2024-01-07T05:01:26;2.30;99.90
5870;DHT22;2961;47.702;9.410;2024-01-07T05:03:53;2.30;99.90
5870;DHT22;2961;47.702;9.410;2024-01-07T05:06:19;2.30;99.90
5870;DHT22;2961;47.702;9.410;2024-01-07T05:11:31;2.30;99.90
5870;DHT22;2961;47.702;9.410;2024-01-07T05:13:59;2.20;99.90
5870;DHT22;2961;47.702;9.410;2024-01-07T05:16:26;2.20;99.90
5870;DHT22;2961;47.702;9.410;2024-01-07T05:18:53;2.20;99.90
5870;DHT22;2961;47.702;9.410;2024-01-07T05:21:20;2.20;99.90
5870;DHT22;2961;47.702;9.410;2024-01-07T05:23:47;2.20;99.90
5870;DHT22;2961;47.702;9.410;2024-01-07T05:26:13;2.20;99.90
5870;DHT22;2961;47.702;9.410;2024-01-07T05:28:40;2.10;99.90
5870;DHT22;2961;47.702;9.410;2024-01-07T05:31:15;2.10;99.90
5870;DHT22;2961;47.702;9.410;2024-01-07T05:33:42;2.20;99.90
5870;DHT22;2961;47.702;9.410;2024-01-07T05:36:09;2.20;99.90
5870;DHT22;2961;47.702;9.410;2024-01-07T05:38:36;2.20;99.90
5870;DHT22;2961;47.702;9.410;2024-01-07T05:41:03;2.20;99.90
5870;DHT22;2961;47.702;9.410;2024-01-07T05:43:29;2.20;99.90
5870;DHT22;2961;47.702;9.410;2024-01-07T05:45:56;2.20;99.90
5870;DHT22;2961;47.702;9.410;2024-01-07T05:48:24;2.30;99.90
5870;DHT22;2961;47.702;9.410;2024-01-07T05:50:51;2.30;99.90
5870;DHT22;2961;47.702;9.410;2024-01-07T05:53:18;2.20;99.90
5870;DHT22;2961;47.702;9.410;2024-01-07T05:55:45;2.20;99.90
5870;DHT22;2961;47.702;9.410;2024-01-07T05:58:12;2.20;99.90
5870;DHT22;2961;47.702;9.410;2024-01-07T06:00:38;2.30;99.90
5870;DHT22;2961;47.702;9.410;2024-01-07T06:03:05;2.30;99.90
5870;DHT22;2961;47.702;9.410;2024-01-07T06:05:33;2.20;99.90
5870;DHT22;2961;47.702;9.410;2024-01-07T06:08:00;2.10;99.90
5870;DHT22;2961;47.702;9.410;2024-01-07T06:10:27;2.20;99.90
5870;DHT22;2961;47.702;9.410;2024-01-07T06:12:53;2.20;99.90
5870;DHT22;2961;47.702;9.410;2024-01-07T06:15:20;2.20;99.90
5870;DHT22;2961;47.702;9.410;2024-01-07T06:17:47;2.20;99.90
5870;DHT22;2961;47.702;9.410;2024-01-07T06:20:14;2.20;99.90
5870;DHT22;2961;47.702;9.410;2024-01-07T06:22:42;2.20;99.90
5870;DHT22;2961;47.702;9.410;2024-01-07T06:25:09;2.20;99.90
5870;DHT22;2961;47.702;9.410;2024-01-07T06:27:38;2.20;99.90
5870;DHT22;2961;47.702;9.410;2024-01-07T06:30:06;2.20;99.90
5870;DHT22;2961;47.702;9.410;2024-01-07T06:32:33;2.20;99.90
5870;DHT22;2961;47.702;9.410;2024-01-07T06:35:01;2.20;99.90
5870;DHT22;2961;47.702;9.410;2024-01-07T06:37:29;2.20;99.90
5870;DHT22;2961;47.702;9.410;2024-01-07T06:39:57;2.20;99.90
5870;DHT22;2961;47.702;9.410;2024-01-07T06:42:24;2.20;99.90
5870;DHT22;2961;47.702;9.410;2024-01-07T06:44:52;2.00;99.90
5870;DHT22;2961;47.702;9.410;2024-01-07T06:47:19;1.90;99.90
5870;DHT22;2961;47.702;9.410;2024-01-07T06:49:46;2.00;99.90
5870;DHT22;2961;47.702;9.410;2024-01-07T06:52:12;2.00;99.90
5870;DHT22;2961;47.702;9.410;2024-01-07T06:54:39;2.10;99.90
5870;DHT22;2961;47.702;9.410;2024-01-07T06:57:09;2.10;99.90
5870;DHT22;2961;47.702;9.410;2024-01-07T06:59:35;2.10;99.90
5870;DHT22;2961;47.702;9.410;2024-01-07T07:02:02;2.10;99.90
5870;DHT22;2961;47.702;9.410;2024-01-07T07:04:29;2.20;99.90
5870;DHT22;2961;47.702;9.410;2024-01-07T07:06:56;2.20;99.90
5870;DHT22;2961;47.702;9.410;2024-01-07T07:09:23;2.10;99.90
5870;DHT22;2961;47.702;9.410;2024-01-07T07:11:50;2.20;99.90
5870;DHT22;2961;47.702;9.410;2024-01-07T07:14:18;2.20;99.90
5870;DHT22;2961;47.702;9.410;2024-01-07T07:16:45;2.20;99.90
5870;DHT22;2961;47.702;9.410;2024-01-07T07:19:11;2.20;99.90
5870;DHT22;2961;47.702;9.410;2024-01-07T07:21:41;2.30;99.90
5870;DHT22;2961;47.702;9.410;2024-01-07T07:24:08;2.30;99.90
5870;DHT22;2961;47.702;9.410;2024-01-07T07:26:34;2.30;99.90
5870;DHT22;2961;47.702;9.410;2024-01-07T07:29:01;2.20;99.90
5870;DHT22;2961;47.702;9.410;2024-01-07T07:31:29;2.20;99.90
5870;DHT22;2961;47.702;9.410;2024-01-07T07:33:56;2.30;99.90
5870;DHT22;2961;47.702;9.410;2024-01-07T07:36:23;2.20;99.90
5870;DHT22;2961;47.702;9.410;2024-01-07T07:38:50;2.20;99.90
5870;DHT22;2961;47.702;9.410;2024-01-07T07:41:17;2.20;99.90
5870;DHT22;2961;47.702;9.410;2024-01-07T07:43:44;2.30;99.90
5870;DHT22;2961;47.702;9.410;2024-01-07T07:46:10;2.30;99.90
5870;DHT22;2961;47.702;9.410;2024-01-07T07:48:40;2.30;99.90
5870;DHT22;2961;47.702;9.410;2024-01-07T07:51:07;2.30;99.90
5870;DHT22;2961;47.702;9.410;2024-01-07T07:53:33;2.20;99.90
5870;DHT22;2961;47.702;9.410;2024-01-07T07:56:01;2.20;99.90
5870;DHT22;2961;47.702;9.410;2024-01-07T07:58:28;2.20;99.90
5870;DHT22;2961;47.702;9.410;2024-01-07T08:00:54;2.20;99.90
5870;DHT22;2961;47.702;9.410;2024-01-07T08:03:21;2.20;99.90
5870;DHT22;2961;47.702;9.410;2024-01-07T08:05:49;2.20;99.90
5870;DHT22;2961;47.702;9.410;2024-01-07T08:08:16;2.30;99.90
5870;DHT22;2961;47.702;9.410;2024-01-07T08:10:43;2.30;99.90
5870;DHT22;2961;47.702;9.410;2024-01-07T08:13:10;2.30;99.90
5870;DHT22;2961;47.702;9.410;2024-01-07T08:15:36;2.40;99.90
5870;DHT22;2961;47.702;9.410;2024-01-07T08:18:04;2.40;99.90
5870;DHT22;2961;47.702;9.410;2024-01-07T08:20:31;2.40;99.90
5870;DHT22;2961;47.702;9.410;2024-01-07T08:22:59;2.50;99.90
5870;DHT22;2961;47.702;9.410;2024-01-07T08:25:26;2.50;99.90
5870;DHT22;2961;47.702;9.410;2024-01-07T08:27:53;2.50;99.90
5870;DHT22;2961;47.702;9.410;2024-01-07T08:30:20;2.50;99.90
5870;DHT22;2961;47.702;9.410;2024-01-07T08:32:46;2.50;99.90
5870;DHT22;2961;47.702;9.410;2024-01-07T08:35:13;2.50;99.90
5870;DHT22;2961;47.702;9.410;2024-01-07T08:37:40;2.60;99.90
5870;DHT22;2961;47.702;9.410;2024-01-07T08:40:09;2.50;99.90
5870;DHT22;2961;47.702;9.410;2024-01-07T08:42:36;2.50;99.90
5870;DHT22;2961;47.702;9.410;2024-01-07T08:45:04;2.60;99.90
5870;DHT22;2961;47.702;9.410;2024-01-07T08:47:31;2.60;99.90
5870;DHT22;2961;47.702;9.410;2024-01-07T08:49:58;2.60;99.90
5870;DHT22;2961;47.702;9.410;2024-01-07T08:52:24;2.70;99.90
5870;DHT22;2961;47.702;9.410;2024-01-07T08:54:52;2.70;99.90
5870;DHT22;2961;47.702;9.410;2024-01-07T08:57:20;2.70;99.90
5870;DHT22;2961;47.702;9.410;2024-01-07T08:59:47;2.80;99.90
5870;DHT22;2961;47.702;9.410;2024-01-07T09:02:14;2.80;99.90
5870;DHT22;2961;47.702;9.410;2024-01-07T09:04:41;2.80;99.90
5870;DHT22;2961;47.702;9.410;2024-01-07T09:07:07;2.80;99.90
5870;DHT22;2961;47.702;9.410;2024-01-07T09:09:34;2.70;99.90
5870;DHT22;2961;47.702;9.410;2024-01-07T09:12:01;2.80;99.90
5870;DHT22;2961;47.702;9.410;2024-01-07T09:14:30;2.90;99.90
5870;DHT22;2961;47.702;9.410;2024-01-07T09:16:57;2.90;99.90
5870;DHT22;2961;47.702;9.410;2024-01-07T09:19:24;2.90;99.90
5870;DHT22;2961;47.702;9.410;2024-01-07T09:21:51;2.90;99.90
5870;DHT22;2961;47.702;9.410;2024-01-07T09:24:18;2.90;99.90
5870;DHT22;2961;47.702;9.410;2024-01-07T09:26:45;2.90;99.90
5870;DHT22;2961;47.702;9.410;2024-01-07T09:29:12;2.90;99.90
5870;DHT22;2961;47.702;9.410;2024-01-07T09:31:40;2.90;99.90
5870;DHT22;2961;47.702;9.410;2024-01-07T09:34:07;2.90;99.90
5870;DHT22;2961;47.702;9.410;2024-01-07T09:36:34;2.90;99.90
5870;DHT22;2961;47.702;9.410;2024-01-07T09:39:01;2.90;99.90
5870;DHT22;2961;47.702;9.410;2024-01-07T09:41:30;3.00;99.90
5870;DHT22;2961;47.702;9.410;2024-01-07T09:43:58;3.00;99.90
5870;DHT22;2961;47.702;9.410;2024-01-07T09:46:26;3.00;99.90
5870;DHT22;2961;47.702;9.410;2024-01-07T09:48:56;3.10;99.90
5870;DHT22;2961;47.702;9.410;2024-01-07T09:51:23;3.00;99.90
5870;DHT22;2961;47.702;9.410;2024-01-07T09:53:54;3.10;99.90
5870;DHT22;2961;47.702;9.410;2024-01-07T09:56:25;3.10;99.90
5870;DHT22;2961;47.702;9.410;2024-01-07T09:58:52;3.00;99.90
5870;DHT22;2961;47.702;9.410;2024-01-07T10:01:19;3.10;99.90
5870;DHT22;2961;47.702;9.410;2024-01-07T10:03:46;3.10;99.90
5870;DHT22;2961;47.702;9.410;2024-01-07T10:06:18;3.10;99.90
5870;DHT22;2961;47.702;9.410;2024-01-07T10:08:44;3.10;99.90
5870;DHT22;2961;47.702;9.410;2024-01-07T10:11:13;3.20;99.90
5870;DHT22;2961;47.702;9.410;2024-01-07T10:13:40;3.10;99.90
5870;DHT22;2961;47.702;9.410;2024-01-07T10:16:07;3.10;99.90
5870;DHT22;2961;47.702;9.410;2024-01-07T10:18:34;3.10;99.90
5870;DHT22;2961;47.702;9.410;2024-01-07T10:21:02;3.00;99.90
5870;DHT22;2961;47.702;9.410;2024-01-07T10:23:31;3.00;99.90
5870;DHT22;2961;47.702;9.410;2024-01-07T10:25:58;2.90;99.90
5870;DHT22;2961;47.702;9.410;2024-01-07T10:28:25;2.90;99.90
5870;DHT22;2961;47.702;9.410;2024-01-07T10:30:51;2.90;99.90
5870;DHT22;2961;47.702;9.410;2024-01-07T10:33:18;2.80;99.90
5870;DHT22;2961;47.702;9.410;2024-01-07T10:36:01;2.80;99.90
5870;DHT22;2961;47.702;9.410;2024-01-07T10:38:30;2.90;99.90
5870;DHT22;2961;47.702;9.410;2024-01-07T10:40:59;2.90;99.90
5870;DHT22;2961;47.702;9.410;2024-01-07T10:43:26;2.80;99.90
5870;DHT22;2961;47.702;9.410;2024-01-07T10:45:55;2.80;99.90
5870;DHT22;2961;47.702;9.410;2024-01-07T10:48:30;2.80;99.90
5870;DHT22;2961;47.702;9.410;2024-01-07T10:50:59;2.80;99.90
5870;DHT22;2961;47.702;9.410;2024-01-07T10:53:28;2.80;99.90
5870;DHT22;2961;47.702;9.410;2024-01-07T10:56:03;2.80;99.90
5870;DHT22;2961;47.702;9.410;2024-01-07T10:58:32;2.80;99.90
5870;DHT22;2961;47.702;9.410;2024-01-07T11:01:00;2.90;99.90
5870;DHT22;2961;47.702;9.410;2024-01-07T11:03:35;2.80;99.90
5870;DHT22;2961;47.702;9.410;2024-01-07T11:06:08;2.90;99.90
5870;DHT22;2961;47.702;9.410;2024-01-07T11:08:43;2.80;99.90
5870;DHT22;2961;47.702;9.410;2024-01-07T11:11:17;2.90;99.90
5870;DHT22;2961;47.702;9.410;2024-01-07T11:13:46;2.80;99.90
5870;DHT22;2961;47.702;9.410;2024-01-07T11:16:13;2.80;99.90
5870;DHT22;2961;47.702;9.410;2024-01-07T11:18:40;2.90;99.90
5870;DHT22;2961;47.702;9.410;2024-01-07T11:21:20;2.90;99.90
5870;DHT22;2961;47.702;9.410;2024-01-07T11:23:47;2.90;99.90
5870;DHT22;2961;47.702;9.410;2024-01-07T11:26:15;2.80;99.90
5870;DHT22;2961;47.702;9.410;2024-01-07T11:28:46;2.80;99.90
5870;DHT22;2961;47.702;9.410;2024-01-07T11:31:13;2.80;99.90
5870;DHT22;2961;47.702;9.410;2024-01-07T11:33:42;3.00;99.90
5870;DHT22;2961;47.702;9.410;2024-01-07T11:36:11;2.90;99.90
5870;DHT22;2961;47.702;9.410;2024-01-07T11:38:38;2.90;99.90
5870;DHT22;2961;47.702;9.410;2024-01-07T11:41:08;2.90;99.90
5870;DHT22;2961;47.702;9.410;2024-01-07T11:43:37;2.90;99.90
5870;DHT22;2961;47.702;9.410;2024-01-07T11:46:04;2.80;99.90
5870;DHT22;2961;47.702;9.410;2024-01-07T11:48:30;2.80;99.90
5870;DHT22;2961;47.702;9.410;2024-01-07T11:50:57;2.80;99.90
5870;DHT22;2961;47.702;9.410;2024-01-07T11:53:24;2.80;99.90
5870;DHT22;2961;47.702;9.410;2024-01-07T11:55:51;2.80;99.90
5870;DHT22;2961;47.702;9.410;2024-01-07T11:58:18;2.70;99.90
5870;DHT22;2961;47.702;9.410;2024-01-07T12:00:46;2.70;99.90
5870;DHT22;2961;47.702;9.410;2024-01-07T12:03:13;2.70;99.90
5870;DHT22;2961;47.702;9.410;2024-01-07T12:05:40;2.60;99.90
5870;DHT22;2961;47.702;9.410;2024-01-07T12:08:07;2.70;99.90
5870;DHT22;2961;47.702;9.410;2024-01-07T12:10:35;2.70;99.90
5870;DHT22;2961;47.702;9.410;2024-01-07T12:13:02;2.70;99.90
5870;DHT22;2961;47.702;9.410;2024-01-07T12:15:30;2.60;99.90
5870;DHT22;2961;47.702;9.410;2024-01-07T12:18:00;2.60;99.90
5870;DHT22;2961;47.702;9.410;2024-01-07T12:20:27;2.60;99.90
5870;DHT22;2961;47.702;9.410;2024-01-07T12:22:56;2.60;99.90
5870;DHT22;2961;47.702;9.410;2024-01-07T12:25:23;2.60;99.90
5870;DHT22;2961;47.702;9.410;2024-01-07T12:27:50;2.60;99.90
5870;DHT22;2961;47.702;9.410;2024-01-07T12:30:19;2.60;99.90
5870;DHT22;2961;47.702;9.410;2024-01-07T12:32:46;2.50;99.90
5870;DHT22;2961;47.702;9.410;2024-01-07T12:35:15;2.60;99.90
5870;DHT22;2961;47.702;9.410;2024-01-07T12:37:43;2.50;99.90
5870;DHT22;2961;47.702;9.410;2024-01-07T12:40:11;2.60;99.90
5870;DHT22;2961;47.702;9.410;2024-01-07T12:42:38;2.50;99.90
5870;DHT22;2961;47.702;9.410;2024-01-07T12:45:10;2.40;99.90
5870;DHT22;2961;47.702;9.410;2024-01-07T12:47:39;2.40;99.90
5870;DHT22;2961;47.702;9.410;2024-01-07T12:50:06;2.30;99.90
5870;DHT22;2961;47.702;9.410;2024-01-07T12:52:36;2.20;99.90
5870;DHT22;2961;47.702;9.410;2024-01-07T12:55:03;2.20;99.90
5870;DHT22;2961;47.702;9.410;2024-01-07T12:57:30;2.30;99.90
5870;DHT22;2961;47.702;9.410;2024-01-07T12:59:57;2.30;99.90
5870;DHT22;2961;47.702;9.410;2024-01-07T13:02:23;2.20;99.90
5870;DHT22;2961;47.702;9.410;2024-01-07T13:04:50;2.20;99.90
5870;DHT22;2961;47.702;9.410;2024-01-07T13:07:17;2.20;99.90
5870;DHT22;2961;47.702;9.410;2024-01-07T13:09:45;2.10;99.90
5870;DHT22;2961;47.702;9.410;2024-01-07T13:12:12;2.10;99.90
5870;DHT22;2961;47.702;9.410;2024-01-07T13:14:39;2.10;99.90
5870;DHT22;2961;47.702;9.410;2024-01-07T13:17:07;2.10;99.90
5870;DHT22;2961;47.702;9.410;2024-01-07T13:19:35;2.00;99.90
5870;DHT22;2961;47.702;9.410;2024-01-07T13:22:02;2.00;99.90
5870;DHT22;2961;47.702;9.410;2024-01-07T13:24:29;1.90;99.90
5870;DHT22;2961;47.702;9.410;2024-01-07T13:26:57;2.00;99.90
5870;DHT22;2961;47.702;9.410;2024-01-07T13:29:23;1.90;99.90
5870;DHT22;2961;47.702;9.410;2024-01-07T13:31:50;1.80;99.90
5870;DHT22;2961;47.702;9.410;2024-01-07T13:34:17;1.80;99.90
5870;DHT22;2961;47.702;9.410;2024-01-07T13:36:44;1.70;99.90
5870;DHT22;2961;47.702;9.410;2024-01-07T13:39:12;1.70;99.90
5870;DHT22;2961;47.702;9.410;2024-01-07T13:41:41;1.60;99.90
5870;DHT22;2961;47.702;9.410;2024-01-07T13:44:09;1.60;99.90
5870;DHT22;2961;47.702;9.410;2024-01-07T13:46:43;1.60;99.90
5870;DHT22;2961;47.702;9.410;2024-01-07T13:49:10;1.60;99.90
5870;DHT22;2961;47.702;9.410;2024-01-07T13:51:37;1.60;99.90
5870;DHT22;2961;47.702;9.410;2024-01-07T13:54:04;1.60;99.90
5870;DHT22;2961;47.702;9.410;2024-01-07T13:56:31;1.60;99.90
5870;DHT22;2961;47.702;9.410;2024-01-07T13:59:01;1.60;99.90
5870;DHT22;2961;47.702;9.410;2024-01-07T14:01:30;1.60;99.90
5870;DHT22;2961;47.702;9.410;2024-01-07T14:03:57;1.60;99.90
5870;DHT22;2961;47.702;9.410;2024-01-07T14:06:24;1.70;99.90
5870;DHT22;2961;47.702;9.410;2024-01-07T14:08:51;1.70;99.90
5870;DHT22;2961;47.702;9.410;2024-01-07T14:11:17;1.70;99.90
5870;DHT22;2961;47.702;9.410;2024-01-07T14:13:44;1.70;99.90
5870;DHT22;2961;47.702;9.410;2024-01-07T14:16:12;1.60;99.90
5870;DHT22;2961;47.702;9.410;2024-01-07T14:18:40;1.60;99.90
5870;DHT22;2961;47.702;9.410;2024-01-07T14:21:07;1.60;99.90
5870;DHT22;2961;47.702;9.410;2024-01-07T14:23:35;1.60;99.90
5870;DHT22;2961;47.702;9.410;2024-01-07T14:26:02;1.60;99.90
5870;DHT22;2961;47.702;9.410;2024-01-07T14:28:28;1.60;99.90
5870;DHT22;2961;47.702;9.410;2024-01-07T14:30:55;1.60;99.90
5870;DHT22;2961;47.702;9.410;2024-01-07T14:33:23;1.60;99.90
5870;DHT22;2961;47.702;9.410;2024-01-07T14:35:51;1.60;99.90
5870;DHT22;2961;47.702;9.410;2024-01-07T14:38:18;1.50;99.90
5870;DHT22;2961;47.702;9.410;2024-01-07T14:40:45;1.60;99.90
5870;DHT22;2961;47.702;9.410;2024-01-07T14:43:12;1.60;99.90
5870;DHT22;2961;47.702;9.410;2024-01-07T14:45:39;1.50;99.90
5870;DHT22;2961;47.702;9.410;2024-01-07T14:48:06;1.50;99.90
5870;DHT22;2961;47.702;9.410;2024-01-07T14:50:34;1.50;99.90
5870;DHT22;2961;47.702;9.410;2024-01-07T14:53:02;1.50;99.90
5870;DHT22;2961;47.702;9.410;2024-01-07T14:55:29;1.50;99.90
5870;DHT22;2961;47.702;9.410;2024-01-07T14:57:56;1.40;99.90
5870;DHT22;2961;47.702;9.410;2024-01-07T15:00:23;1.40;99.90
5870;DHT22;2961;47.702;9.410;2024-01-07T15:02:50;1.40;99.90
5870;DHT22;2961;47.702;9.410;2024-01-07T15:05:17;1.30;99.90
5870;DHT22;2961;47.702;9.410;2024-01-07T15:07:44;1.40;99.90
5870;DHT22;2961;47.702;9.410;2024-01-07T15:10:15;1.30;99.90
5870;DHT22;2961;47.702;9.410;2024-01-07T15:12:42;1.30;99.90
5870;DHT22;2961;47.702;9.410;2024-01-07T15:15:09;1.30;99.90
5870;DHT22;2961;47.702;9.410;2024-01-07T15:17:37;1.30;99.90
5870;DHT22;2961;47.702;9.410;2024-01-07T15:20:04;1.40;99.90
5870;DHT22;2961;47.702;9.410;2024-01-07T15:22:32;1.40;99.90
5870;DHT22;2961;47.702;9.410;2024-01-07T15:24:59;1.40;99.90
5870;DHT22;2961;47.702;9.410;2024-01-07T15:27:27;1.40;99.90
5870;DHT22;2961;47.702;9.410;2024-01-07T15:29:55;1.40;99.90
5870;DHT22;2961;47.702;9.410;2024-01-07T15:32:21;1.30;99.90
5870;DHT22;2961;47.702;9.410;2024-01-07T15:34:48;1.30;99.90
5870;DHT22;2961;47.702;9.410;2024-01-07T15:37:15;1.30;99.90
5870;DHT22;2961;47.702;9.410;2024-01-07T15:39:42;1.20;99.90
5870;DHT22;2961;47.702;9.410;2024-01-07T15:42:09;1.20;99.90
5870;DHT22;2961;47.702;9.410;2024-01-07T15:44:37;1.20;99.90
5870;DHT22;2961;47.702;9.410;2024-01-07T15:47:04;1.10;99.90
5870;DHT22;2961;47.702;9.410;2024-01-07T15:49:31;1.10;99.90
5870;DHT22;2961;47.702;9.410;2024-01-07T15:51:57;1.10;99.90
5870;DHT22;2961;47.702;9.410;2024-01-07T15:54:24;1.10;99.90
5870;DHT22;2961;47.702;9.410;2024-01-07T15:56:51;1.10;99.90
5870;DHT22;2961;47.702;9.410;2024-01-07T15:59:18;1.10;99.90
5870;DHT22;2961;47.702;9.410;2024-01-07T16:01:49;1.10;99.90
5870;DHT22;2961;47.702;9.410;2024-01-07T16:04:16;1.00;99.90
5870;DHT22;2961;47.702;9.410;2024-01-07T16:06:44;1.00;99.90
5870;DHT22;2961;47.702;9.410;2024-01-07T16:09:11;1.00;99.90
5870;DHT22;2961;47.702;9.410;2024-01-07T16:11:38;1.00;99.90
5870;DHT22;2961;47.702;9.410;2024-01-07T16:14:05;0.90;99.90
5870;DHT22;2961;47.702;9.410;2024-01-07T16:16:32;0.90;99.90
5870;DHT22;2961;47.702;9.410;2024-01-07T16:19:02;0.80;99.90
5870;DHT22;2961;47.702;9.410;2024-01-07T16:21:30;0.80;99.90